sensor_id;sensor_type;location;lat;lon;timestamp;temperature;humidity
3868;DHT22;1949;48.152;11.528;2023-12-20T00:01:01;11.90;34.30
3868;DHT22;1949;48.152;11.528;2023-12-20T00:03:27;11.90;34.30
3868;DHT22;1949;48.152;11.528;2023-12-20T00:05:52;11.90;34.10
3868;DHT22;1949;48.152;11.528;2023-12-20T00:08:18;11.80;34.10
3868;DHT22;1949;48.152;11.528;2023-12-20T00:10:44;11.70;34.10
3868;DHT22;1949;48.152;11.528;2023-12-20T00:13:10;11.70;34.30
3868;DHT22;1949;48.152;11.528;2023-12-20T00:15:36;11.70;34.40
3868;DHT22;1949;48.152;11.528;2023-12-20T00:18:02;11.60;34.40
3868;DHT22;1949;48.152;11.528;2023-12-20T00:20:28;11.60;34.70
3868;DHT22;1949;48.152;11.528;2023-12-20T00:22:56;11.70;34.80
3868;DHT22;1949;48.152;11.528;2023-12-20T00:25:23;11.80;34.90
3868;DHT22;1949;48.152;11.528;2023-12-20T00:27:49;11.80;34.70
3868;DHT22;1949;48.152;11.528;2023-12-20T00:30:15;11.80;34.70
3868;DHT22;1949;48.152;11.528;2023-12-20T00:32:41;11.70;34.50
3868;DHT22;1949;48.152;11.528;2023-12-20T00:35:16;11.70;34.60
3868;DHT22;1949;48.152;11.528;2023-12-20T00:37:45;11.70;34.70
3868;DHT22;1949;48.152;11.528;2023-12-20T00:40:11;11.70;34.80
3868;DHT22;1949;48.152;11.528;2023-12-20T00:42:37;11.70;34.70
3868;DHT22;1949;48.152;11.528;2023-12-20T00:45:03;11.70;34.70
3868;DHT22;1949;48.152;11.528;2023-12-20T00:47:33;11.70;34.70
3868;DHT22;1949;48.152;11.528;2023-12-20T00:49:59;11.70;34.60
3868;DHT22;1949;48.152;11.528;2023-12-20T00:52:26;11.70;34.50
3868;DHT22;1949;48.152;11.528;2023-12-20T00:54:52;11.70;34.50
3868;DHT22;1949;48.152;11.528;2023-12-20T00:57:18;11.70;34.50
3868;DHT22;1949;48.152;11.528;2023-12-20T00:59:44;11.70;34.50
3868;DHT22;1949;48.152;11.528;2023-12-20T01:02:09;11.70;34.60
3868;DHT22;1949;48.152;11.528;2023-12-20T01:04:36;11.70;34.50
3868;DHT22;1949;48.152;11.528;2023-12-20T01:07:02;11.70;34.40
3868;DHT22;1949;48.152;11.528;2023-12-20T01:09:29;11.70;34.50
3868;DHT22;1949;48.152;11.528;2023-12-20T01:11:54;11.70;34.60
3868;DHT22;1949;48.152;11.528;2023-12-20T01:14:21;11.80;34.60
3868;DHT22;1949;48.152;11.528;2023-12-20T01:16:47;11.80;34.60
3868;DHT22;1949;48.152;11.528;2023-12-20T01:19:13;11.80;34.50
3868;DHT22;1949;48.152;11.528;2023-12-20T01:21:39;11.80;34.60
3868;DHT22;1949;48.152;11.528;2023-12-20T01:24:05;11.80;34.50
3868;DHT22;1949;48.152;11.528;2023-12-20T01:26:31;11.80;34.50
3868;DHT22;1949;48.152;11.528;2023-12-20T01:28:57;11.90;34.60
3868;DHT22;1949;48.152;11.528;2023-12-20T01:31:24;11.90;34.60
3868;DHT22;1949;48.152;11.528;2023-12-20T01:33:49;11.90;34.70
3868;DHT22;1949;48.152;11.528;2023-12-20T01:36:15;11.90;34.60
3868;DHT22;1949;48.152;11.528;2023-12-20T01:38:41;11.90;34.60
3868;DHT22;1949;48.152;11.528;2023-12-20T01:41:07;11.90;34.80
3868;DHT22;1949;48.152;11.528;2023-12-20T01:43:33;11.90;34.80
3868;DHT22;1949;48.152;11.528;2023-12-20T01:45:59;12.00;34.80
3868;DHT22;1949;48.152;11.528;2023-12-20T01:48:25;12.00;34.80
3868;DHT22;1949;48.152;11.528;2023-12-20T01:50:52;12.10;34.80
3868;DHT22;1949;48.152;11.528;2023-12-20T01:53:20;12.00;34.70
3868;DHT22;1949;48.152;11.528;2023-12-20T01:55:48;12.00;34.70
3868;DHT22;1949;48.152;11.528;2023-12-20T01:58:17;12.00;34.70
3868;DHT22;1949;48.152;11.528;2023-12-20T02:00:43;12.00;34.70
3868;DHT22;1949;48.152;11.528;2023-12-20T02:03:11;12.00;34.80
3868;DHT22;1949;48.152;11.528;2023-12-20T02:05:38;12.00;34.80
3868;DHT22;1949;48.152;11.528;2023-12-20T02:08:04;11.90;34.60
3868;DHT22;1949;48.152;11.528;2023-12-20T02:10:32;11.90;34.70
3868;DHT22;1949;48.152;11.528;2023-12-20T02:12:58;11.90;34.80
3868;DHT22;1949;48.152;11.528;2023-12-20T02:15:24;11.80;34.70
3868;DHT22;1949;48.152;11.528;2023-12-20T02:17:50;11.80;34.80
3868;DHT22;1949;48.152;11.528;2023-12-20T02:20:16;11.90;35.10
3868;DHT22;1949;48.152;11.528;2023-12-20T02:22:42;11.90;35.10
3868;DHT22;1949;48.152;11.528;2023-12-20T02:25:08;11.90;35.00
3868;DHT22;1949;48.152;11.528;2023-12-20T02:27:36;12.00;35.00
3868;DHT22;1949;48.152;11.528;2023-12-20T02:30:02;12.00;35.10
3868;DHT22;1949;48.152;11.528;2023-12-20T02:32:29;12.00;35.00
3868;DHT22;1949;48.152;11.528;2023-12-20T02:34:55;11.90;34.90
3868;DHT22;1949;48.152;11.528;2023-12-20T02:37:21;12.00;35.30
3868;DHT22;1949;48.152;11.528;2023-12-20T02:39:47;12.00;35.90
3868;DHT22;1949;48.152;11.528;2023-12-20T02:42:12;12.00;35.50
3868;DHT22;1949;48.152;11.528;2023-12-20T02:44:38;12.00;35.30
3868;DHT22;1949;48.152;11.528;2023-12-20T02:47:04;12.00;36.00
3868;DHT22;1949;48.152;11.528;2023-12-20T02:49:30;12.10;35.40
3868;DHT22;1949;48.152;11.528;2023-12-20T02:51:55;12.10;35.40
3868;DHT22;1949;48.152;11.528;2023-12-20T02:54:21;12.10;35.40
3868;DHT22;1949;48.152;11.528;2023-12-20T02:56:47;12.10;35.40
3868;DHT22;1949;48.152;11.528;2023-12-20T02:59:13;12.10;35.50
3868;DHT22;1949;48.152;11.528;2023-12-20T03:01:45;12.10;35.70
3868;DHT22;1949;48.152;11.528;2023-12-20T03:04:12;12.10;35.70
3868;DHT22;1949;48.152;11.528;2023-12-20T03:06:38;12.10;35.60
3868;DHT22;1949;48.152;11.528;2023-12-20T03:09:04;12.10;35.80
3868;DHT22;1949;48.152;11.528;2023-12-20T03:11:30;12.10;35.80
3868;DHT22;1949;48.152;11.528;2023-12-20T03:13:56;12.20;35.80
3868;DHT22;1949;48.152;11.528;2023-12-20T03:16:22;12.20;35.90
3868;DHT22;1949;48.152;11.528;2023-12-20T03:18:48;12.20;35.90
3868;DHT22;1949;48.152;11.528;2023-12-20T03:21:14;12.20;35.90
3868;DHT22;1949;48.152;11.528;2023-12-20T03:23:40;12.20;36.00
3868;DHT22;1949;48.152;11.528;2023-12-20T03:26:09;12.20;36.10
3868;DHT22;1949;48.152;11.528;2023-12-20T03:28:36;12.20;36.20
3868;DHT22;1949;48.152;11.528;2023-12-20T03:31:06;12.20;36.30
3868;DHT22;1949;48.152;11.528;2023-12-20T03:33:32;12.20;36.30
3868;DHT22;1949;48.152;11.528;2023-12-20T03:35:59;12.20;36.50
3868;DHT22;1949;48.152;11.528;2023-12-20T03:38:27;12.20;36.50
3868;DHT22;1949;48.152;11.528;2023-12-20T03:40:53;12.30;36.70
3868;DHT22;1949;48.152;11.528;2023-12-20T03:43:18;12.30;36.60
3868;DHT22;1949;48.152;11.528;2023-12-20T03:45:45;12.20;36.50
3868;DHT22;1949;48.152;11.528;2023-12-20T03:48:11;12.20;36.70
3868;DHT22;1949;48.152;11.528;2023-12-20T03:50:37;12.20;36.70
3868;DHT22;1949;48.152;11.528;2023-12-20T03:53:03;12.20;36.90
3868;DHT22;1949;48.152;11.528;2023-12-20T03:55:29;12.10;37.00
3868;DHT22;1949;48.152;11.528;2023-12-20T03:57:58;12.10;37.10
3868;DHT22;1949;48.152;11.528;2023-12-20T04:00:28;12.00;37.20
3868;DHT22;1949;48.152;11.528;2023-12-20T04:02:54;12.00;37.50
3868;DHT22;1949;48.152;11.528;2023-12-20T04:05:20;12.00;37.50
3868;DHT22;1949;48.152;11.528;2023-12-20T04:07:45;12.00;37.60
3868;DHT22;1949;48.152;11.528;2023-12-20T04:10:11;12.00;37.80
3868;DHT22;1949;48.152;11.528;2023-12-20T04:12:37;11.90;37.80
3868;DHT22;1949;48.152;11.528;2023-12-20T04:15:05;12.00;37.90
3868;DHT22;1949;48.152;11.528;2023-12-20T04:17:35;12.00;38.10
3868;DHT22;1949;48.152;11.528;2023-12-20T04:20:03;12.00;38.80
3868;DHT22;1949;48.152;11.528;2023-12-20T04:22:28;11.90;38.10
3868;DHT22;1949;48.152;11.528;2023-12-20T04:24:54;11.90;38.30
3868;DHT22;1949;48.152;11.528;2023-12-20T04:27:20;11.90;38.50
3868;DHT22;1949;48.152;11.528;2023-12-20T04:29:46;11.90;38.50
3868;DHT22;1949;48.152;11.528;2023-12-20T04:32:11;11.90;38.60
3868;DHT22;1949;48.152;11.528;2023-12-20T04:34:37;11.80;38.60
3868;DHT22;1949;48.152;11.528;2023-12-20T04:37:04;11.70;38.60
3868;DHT22;1949;48.152;11.528;2023-12-20T04:39:29;11.70;39.00
3868;DHT22;1949;48.152;11.528;2023-12-20T04:41:55;11.70;39.10
3868;DHT22;1949;48.152;11.528;2023-12-20T04:44:21;11.60;39.30
3868;DHT22;1949;48.152;11.528;2023-12-20T04:46:47;11.70;39.40
3868;DHT22;1949;48.152;11.528;2023-12-20T04:49:17;11.70;39.40
3868;DHT22;1949;48.152;11.528;2023-12-20T04:51:42;11.70;39.40
3868;DHT22;1949;48.152;11.528;2023-12-20T04:54:08;11.60;39.50
3868;DHT22;1949;48.152;11.528;2023-12-20T04:56:35;11.60;39.70
3868;DHT22;1949;48.152;11.528;2023-12-20T04:59:01;11.70;39.90
3868;DHT22;1949;48.152;11.528;2023-12-20T05:01:30;11.70;39.90
3868;DHT22;1949;48.152;11.528;2023-12-20T05:03:55;11.70;40.00
3868;DHT22;1949;48.152;11.528;2023-12-20T05:06:31;11.60;39.90
3868;DHT22;1949;48.152;11.528;2023-12-20T05:08:59;11.60;40.00
3868;DHT22;1949;48.152;11.528;2023-12-20T05:11:24;11.50;40.10
3868;DHT22;1949;48.152;11.528;2023-12-20T05:13:50;11.50;40.20
3868;DHT22;1949;48.152;11.528;2023-12-20T05:16:16;11.40;40.30
3868;DHT22;1949;48.152;11.528;2023-12-20T05:18:44;11.40;40.50
3868;DHT22;1949;48.152;11.528;2023-12-20T05:21:10;11.30;40.70
3868;DHT22;1949;48.152;11.528;2023-12-20T05:23:37;11.30;40.90
3868;DHT22;1949;48.152;11.528;2023-12-20T05:26:05;11.40;41.10
3868;DHT22;1949;48.152;11.528;2023-12-20T05:28:30;11.40;41.20
3868;DHT22;1949;48.152;11.528;2023-12-20T05:30:56;11.40;41.10
3868;DHT22;1949;48.152;11.528;2023-12-20T05:33:22;11.40;41.10
3868;DHT22;1949;48.152;11.528;2023-12-20T05:35:47;11.40;41.10
3868;DHT22;1949;48.152;11.528;2023-12-20T05:38:13;11.40;41.10
3868;DHT22;1949;48.152;11.528;2023-12-20T05:40:40;11.30;41.30
3868;DHT22;1949;48.152;11.528;2023-12-20T05:43:06;11.30;41.50
3868;DHT22;1949;48.152;11.528;2023-12-20T05:45:31;11.30;41.30
3868;DHT22;1949;48.152;11.528;2023-12-20T05:47:59;11.30;41.60
3868;DHT22;1949;48.152;11.528;2023-12-20T05:50:25;11.30;41.60
3868;DHT22;1949;48.152;11.528;2023-12-20T05:52:51;11.20;41.50
3868;DHT22;1949;48.152;11.528;2023-12-20T05:55:17;11.20;41.60
3868;DHT22;1949;48.152;11.528;2023-12-20T05:57:42;11.20;41.60
3868;DHT22;1949;48.152;11.528;2023-12-20T06:00:09;11.10;41.70
3868;DHT22;1949;48.152;11.528;2023-12-20T06:02:37;11.10;41.90
3868;DHT22;1949;48.152;11.528;2023-12-20T06:05:04;11.00;41.80
3868;DHT22;1949;48.152;11.528;2023-12-20T06:07:30;11.10;41.90
3868;DHT22;1949;48.152;11.528;2023-12-20T06:09:56;11.00;41.80
3868;DHT22;1949;48.152;11.528;2023-12-20T06:12:24;10.90;41.80
3868;DHT22;1949;48.152;11.528;2023-12-20T06:14:53;10.90;42.00
3868;DHT22;1949;48.152;11.528;2023-12-20T06:17:21;10.90;42.10
3868;DHT22;1949;48.152;11.528;2023-12-20T06:19:46;10.90;42.20
3868;DHT22;1949;48.152;11.528;2023-12-20T06:22:17;10.90;42.10
3868;DHT22;1949;48.152;11.528;2023-12-20T06:24:43;10.90;42.20
3868;DHT22;1949;48.152;11.528;2023-12-20T06:27:09;10.80;42.30
3868;DHT22;1949;48.152;11.528;2023-12-20T06:29:35;10.80;42.10
3868;DHT22;1949;48.152;11.528;2023-12-20T06:32:04;10.80;42.30
3868;DHT22;1949;48.152;11.528;2023-12-20T06:34:31;10.80;42.50
3868;DHT22;1949;48.152;11.528;2023-12-20T06:37:00;10.80;42.60
3868;DHT22;1949;48.152;11.528;2023-12-20T06:39:26;10.80;42.60
3868;DHT22;1949;48.152;11.528;2023-12-20T06:41:52;10.80;42.50
3868;DHT22;1949;48.152;11.528;2023-12-20T06:44:17;10.80;42.50
3868;DHT22;1949;48.152;11.528;2023-12-20T06:46:46;10.80;42.60
3868;DHT22;1949;48.152;11.528;2023-12-20T06:49:12;10.80;42.60
3868;DHT22;1949;48.152;11.528;2023-12-20T06:51:41;10.80;42.70
3868;DHT22;1949;48.152;11.528;2023-12-20T06:54:06;10.80;42.60
3868;DHT22;1949;48.152;11.528;2023-12-20T06:56:32;10.70;42.60
3868;DHT22;1949;48.152;11.528;2023-12-20T06:58:59;10.70;42.70
3868;DHT22;1949;48.152;11.528;2023-12-20T07:01:26;10.70;42.70
3868;DHT22;1949;48.152;11.528;2023-12-20T07:03:52;10.70;43.00
3868;DHT22;1949;48.152;11.528;2023-12-20T07:06:18;10.70;42.90
3868;DHT22;1949;48.152;11.528;2023-12-20T07:08:46;10.70;42.90
3868;DHT22;1949;48.152;11.528;2023-12-20T07:11:12;10.60;43.00
3868;DHT22;1949;48.152;11.528;2023-12-20T07:13:38;10.60;43.00
3868;DHT22;1949;48.152;11.528;2023-12-20T07:16:08;10.60;43.20
3868;DHT22;1949;48.152;11.528;2023-12-20T07:18:34;10.60;43.20
3868;DHT22;1949;48.152;11.528;2023-12-20T07:21:34;10.60;43.20
3868;DHT22;1949;48.152;11.528;2023-12-20T07:24:06;10.60;43.00
3868;DHT22;1949;48.152;11.528;2023-12-20T07:26:38;10.70;43.30
3868;DHT22;1949;48.152;11.528;2023-12-20T07:29:09;10.70;43.20
3868;DHT22;1949;48.152;11.528;2023-12-20T07:31:35;10.60;43.20
3868;DHT22;1949;48.152;11.528;2023-12-20T07:34:08;10.60;43.20
3868;DHT22;1949;48.152;11.528;2023-12-20T07:39:47;10.60;43.20
3868;DHT22;1949;48.152;11.528;2023-12-20T07:42:13;10.60;43.30
3868;DHT22;1949;48.152;11.528;2023-12-20T07:44:39;10.60;43.50
3868;DHT22;1949;48.152;11.528;2023-12-20T07:47:05;10.60;43.40
3868;DHT22;1949;48.152;11.528;2023-12-20T07:49:33;10.50;43.10
3868;DHT22;1949;48.152;11.528;2023-12-20T07:52:05;10.40;43.20
3868;DHT22;1949;48.152;11.528;2023-12-20T07:54:31;10.40;43.50
3868;DHT22;1949;48.152;11.528;2023-12-20T07:56:57;10.40;43.50
3868;DHT22;1949;48.152;11.528;2023-12-20T07:59:27;10.40;43.70
3868;DHT22;1949;48.152;11.528;2023-12-20T08:01:52;10.40;43.90
3868;DHT22;1949;48.152;11.528;2023-12-20T08:04:22;10.40;43.80
3868;DHT22;1949;48.152;11.528;2023-12-20T08:06:48;10.50;43.90
3868;DHT22;1949;48.152;11.528;2023-12-20T08:09:14;10.50;43.50
3868;DHT22;1949;48.152;11.528;2023-12-20T08:11:39;10.40;43.60
3868;DHT22;1949;48.152;11.528;2023-12-20T08:14:05;10.40;43.90
3868;DHT22;1949;48.152;11.528;2023-12-20T08:16:32;10.40;43.80
3868;DHT22;1949;48.152;11.528;2023-12-20T08:19:07;10.50;44.10
3868;DHT22;1949;48.152;11.528;2023-12-20T08:21:35;10.50;44.00
3868;DHT22;1949;48.152;11.528;2023-12-20T08:24:01;10.50;44.20
3868;DHT22;1949;48.152;11.528;2023-12-20T08:26:35;10.50;43.80
3868;DHT22;1949;48.152;11.528;2023-12-20T08:29:03;10.50;44.10
3868;DHT22;1949;48.152;11.528;2023-12-20T08:31:28;10.50;44.10
3868;DHT22;1949;48.152;11.528;2023-12-20T08:33:54;10.50;43.90
3868;DHT22;1949;48.152;11.528;2023-12-20T08:36:21;10.50;43.90
3868;DHT22;1949;48.152;11.528;2023-12-20T08:38:58;10.40;43.90
3868;DHT22;1949;48.152;11.528;2023-12-20T08:41:26;10.40;44.00
3868;DHT22;1949;48.152;11.528;2023-12-20T08:43:53;10.40;44.10
3868;DHT22;1949;48.152;11.528;2023-12-20T08:46:33;10.40;44.40
3868;DHT22;1949;48.152;11.528;2023-12-20T08:48:59;10.50;44.30
3868;DHT22;1949;48.152;11.528;2023-12-20T08:51:26;10.50;44.40
3868;DHT22;1949;48.152;11.528;2023-12-20T08:54:00;10.50;44.40
3868;DHT22;1949;48.152;11.528;2023-12-20T08:56:30;10.60;44.30
3868;DHT22;1949;48.152;11.528;2023-12-20T08:58:56;10.50;44.20
3868;DHT22;1949;48.152;11.528;2023-12-20T09:01:23;10.60;44.40
3868;DHT22;1949;48.152;11.528;2023-12-20T09:03:48;10.50;44.30
3868;DHT22;1949;48.152;11.528;2023-12-20T09:06:14;10.50;44.30
3868;DHT22;1949;48.152;11.528;2023-12-20T09:08:43;10.50;44.50
3868;DHT22;1949;48.152;11.528;2023-12-20T09:11:08;10.50;44.60
3868;DHT22;1949;48.152;11.528;2023-12-20T09:13:39;10.60;44.60
3868;DHT22;1949;48.152;11.528;2023-12-20T09:16:08;10.50;44.40
3868;DHT22;1949;48.152;11.528;2023-12-20T09:18:46;10.60;44.70
3868;DHT22;1949;48.152;11.528;2023-12-20T09:21:14;10.60;44.70
3868;DHT22;1949;48.152;11.528;2023-12-20T09:23:41;10.60;44.50
3868;DHT22;1949;48.152;11.528;2023-12-20T09:26:06;10.60;44.50
3868;DHT22;1949;48.152;11.528;2023-12-20T09:28:32;10.60;44.80
3868;DHT22;1949;48.152;11.528;2023-12-20T09:31:05;10.60;44.90
3868;DHT22;1949;48.152;11.528;2023-12-20T09:33:31;10.70;45.00
3868;DHT22;1949;48.152;11.528;2023-12-20T09:36:04;10.70;44.60
3868;DHT22;1949;48.152;11.528;2023-12-20T09:38:37;10.70;44.80
3868;DHT22;1949;48.152;11.528;2023-12-20T09:41:02;10.70;44.80
3868;DHT22;1949;48.152;11.528;2023-12-20T09:43:30;10.70;44.80
3868;DHT22;1949;48.152;11.528;2023-12-20T09:46:00;10.70;44.90
3868;DHT22;1949;48.152;11.528;2023-12-20T09:48:28;10.70;45.00
3868;DHT22;1949;48.152;11.528;2023-12-20T09:50:57;10.70;44.70
3868;DHT22;1949;48.152;11.528;2023-12-20T09:53:31;10.70;44.90
3868;DHT22;1949;48.152;11.528;2023-12-20T09:55:59;10.60;44.80
3868;DHT22;1949;48.152;11.528;2023-12-20T09:58:26;10.70;45.00
3868;DHT22;1949;48.152;11.528;2023-12-20T10:01:06;10.60;44.90
3868;DHT22;1949;48.152;11.528;2023-12-20T10:03:39;10.70;45.20
3868;DHT22;1949;48.152;11.528;2023-12-20T10:06:06;10.70;45.20
3868;DHT22;1949;48.152;11.528;2023-12-20T10:08:32;10.70;45.10
3868;DHT22;1949;48.152;11.528;2023-12-20T10:10:58;10.70;45.20
3868;DHT22;1949;48.152;11.528;2023-12-20T10:13:28;10.70;45.30
3868;DHT22;1949;48.152;11.528;2023-12-20T10:15:56;10.70;45.10
3868;DHT22;1949;48.152;11.528;2023-12-20T10:18:24;10.80;45.40
3868;DHT22;1949;48.152;11.528;2023-12-20T10:20:53;10.80;45.40
3868;DHT22;1949;48.152;11.528;2023-12-20T10:23:20;10.90;45.40
3868;DHT22;1949;48.152;11.528;2023-12-20T10:25:56;10.90;45.40
3868;DHT22;1949;48.152;11.528;2023-12-20T10:28:33;10.90;45.30
3868;DHT22;1949;48.152;11.528;2023-12-20T10:30:59;10.80;45.30
3868;DHT22;1949;48.152;11.528;2023-12-20T10:33:30;10.80;45.50
3868;DHT22;1949;48.152;11.528;2023-12-20T10:35:57;10.80;45.40
3868;DHT22;1949;48.152;11.528;2023-12-20T10:38:37;10.80;45.50
3868;DHT22;1949;48.152;11.528;2023-12-20T10:41:05;10.80;45.40
3868;DHT22;1949;48.152;11.528;2023-12-20T10:43:33;10.80;45.40
3868;DHT22;1949;48.152;11.528;2023-12-20T10:45:59;10.80;45.60
3868;DHT22;1949;48.152;11.528;2023-12-20T10:48:26;10.80;45.80
3868;DHT22;1949;48.152;11.528;2023-12-20T10:50:56;10.80;45.50
3868;DHT22;1949;48.152;11.528;2023-12-20T10:53:22;10.80;45.60
3868;DHT22;1949;48.152;11.528;2023-12-20T10:56:00;10.80;46.20
3868;DHT22;1949;48.152;11.528;2023-12-20T10:58:39;10.70;45.50
3868;DHT22;1949;48.152;11.528;2023-12-20T11:01:08;10.70;45.60
3868;DHT22;1949;48.152;11.528;2023-12-20T11:03:36;10.60;45.60
3868;DHT22;1949;48.152;11.528;2023-12-20T11:06:21;10.60;46.00
3868;DHT22;1949;48.152;11.528;2023-12-20T11:08:58;10.60;46.10
3868;DHT22;1949;48.152;11.528;2023-12-20T11:11:40;10.60;46.00
3868;DHT22;1949;48.152;11.528;2023-12-20T11:14:49;10.70;46.00
3868;DHT22;1949;48.152;11.528;2023-12-20T11:17:15;10.80;46.00
3868;DHT22;1949;48.152;11.528;2023-12-20T11:22:29;10.80;46.00
3868;DHT22;1949;48.152;11.528;2023-12-20T11:25:19;10.90;46.10
3868;DHT22;1949;48.152;11.528;2023-12-20T11:27:44;10.90;46.10
3868;DHT22;1949;48.152;11.528;2023-12-20T11:33:14;10.90;46.10
3868;DHT22;1949;48.152;11.528;2023-12-20T11:35:45;10.90;46.10
3868;DHT22;1949;48.152;11.528;2023-12-20T11:38:15;10.90;46.10
3868;DHT22;1949;48.152;11.528;2023-12-20T11:40:48;10.90;46.00
3868;DHT22;1949;48.152;11.528;2023-12-20T11:43:36;10.90;46.10
3868;DHT22;1949;48.152;11.528;2023-12-20T11:46:07;10.90;45.90
3868;DHT22;1949;48.152;11.528;2023-12-20T11:48:38;10.90;46.10
3868;DHT22;1949;48.152;11.528;2023-12-20T11:51:11;10.90;46.30
3868;DHT22;1949;48.152;11.528;2023-12-20T11:53:38;10.90;46.10
3868;DHT22;1949;48.152;11.528;2023-12-20T11:56:07;10.90;46.10
3868;DHT22;1949;48.152;11.528;2023-12-20T11:58:34;10.90;46.10
3868;DHT22;1949;48.152;11.528;2023-12-20T12:01:03;11.00;46.40
3868;DHT22;1949;48.152;11.528;2023-12-20T12:03:30;11.00;46.40
3868;DHT22;1949;48.152;11.528;2023-12-20T12:05:57;11.10;46.30
3868;DHT22;1949;48.152;11.528;2023-12-20T12:08:24;11.10;46.10
3868;DHT22;1949;48.152;11.528;2023-12-20T12:10:51;11.10;46.00
3868;DHT22;1949;48.152;11.528;2023-12-20T12:13:17;11.10;46.20
3868;DHT22;1949;48.152;11.528;2023-12-20T12:15:45;11.10;46.00
3868;DHT22;1949;48.152;11.528;2023-12-20T12:18:10;11.10;46.10
3868;DHT22;1949;48.152;11.528;2023-12-20T12:20:36;11.10;46.20
3868;DHT22;1949;48.152;11.528;2023-12-20T12:23:05;11.10;46.00
3868;DHT22;1949;48.152;11.528;2023-12-20T12:25:35;11.10;46.00
3868;DHT22;1949;48.152;11.528;2023-12-20T12:28:02;11.10;46.10
3868;DHT22;1949;48.152;11.528;2023-12-20T12:30:29;11.10;46.00
3868;DHT22;1949;48.152;11.528;2023-12-20T12:32:56;11.10;46.20
3868;DHT22;1949;48.152;11.528;2023-12-20T12:35:24;11.10;46.20
3868;DHT22;1949;48.152;11.528;2023-12-20T12:37:51;11.10;46.20
3868;DHT22;1949;48.152;11.528;2023-12-20T12:40:18;11.20;46.40
3868;DHT22;1949;48.152;11.528;2023-12-20T12:42:45;11.20;46.10
3868;DHT22;1949;48.152;11.528;2023-12-20T12:45:12;11.20;46.10
3868;DHT22;1949;48.152;11.528;2023-12-20T12:47:40;11.20;46.10
3868;DHT22;1949;48.152;11.528;2023-12-20T12:50:06;11.10;46.00
3868;DHT22;1949;48.152;11.528;2023-12-20T12:52:32;11.10;46.10
3868;DHT22;1949;48.152;11.528;2023-12-20T12:54:58;11.10;46.30
3868;DHT22;1949;48.152;11.528;2023-12-20T12:57:25;11.10;46.20
3868;DHT22;1949;48.152;11.528;2023-12-20T12:59:51;11.10;46.00
3868;DHT22;1949;48.152;11.528;2023-12-20T13:02:17;11.10;46.10
3868;DHT22;1949;48.152;11.528;2023-12-20T13:04:45;11.10;46.10
3868;DHT22;1949;48.152;11.528;2023-12-20T13:07:11;11.00;46.10
3868;DHT22;1949;48.152;11.528;2023-12-20T13:09:37;11.00;46.30
3868;DHT22;1949;48.152;11.528;2023-12-20T13:12:04;11.00;46.40
3868;DHT22;1949;48.152;11.528;2023-12-20T13:14:33;11.00;46.30
3868;DHT22;1949;48.152;11.528;2023-12-20T13:17:00;11.00;46.40
3868;DHT22;1949;48.152;11.528;2023-12-20T13:19:27;11.10;46.30
3868;DHT22;1949;48.152;11.528;2023-12-20T13:21:53;11.10;46.20
3868;DHT22;1949;48.152;11.528;2023-12-20T13:24:19;11.00;46.00
3868;DHT22;1949;48.152;11.528;2023-12-20T13:26:47;11.00;45.90
3868;DHT22;1949;48.152;11.528;2023-12-20T13:29:14;10.90;45.80
3868;DHT22;1949;48.152;11.528;2023-12-20T13:31:41;10.80;45.80
3868;DHT22;1949;48.152;11.528;2023-12-20T13:34:07;10.80;45.90
3868;DHT22;1949;48.152;11.528;2023-12-20T13:36:33;10.80;46.00
3868;DHT22;1949;48.152;11.528;2023-12-20T13:39:01;10.70;46.00
3868;DHT22;1949;48.152;11.528;2023-12-20T13:41:28;10.70;46.00
3868;DHT22;1949;48.152;11.528;2023-12-20T13:44:00;10.70;46.10
3868;DHT22;1949;48.152;11.528;2023-12-20T13:46:28;10.70;46.10
3868;DHT22;1949;48.152;11.528;2023-12-20T13:48:53;10.70;46.00
3868;DHT22;1949;48.152;11.528;2023-12-20T13:51:19;10.70;46.00
3868;DHT22;1949;48.152;11.528;2023-12-20T13:53:46;10.70;46.20
3868;DHT22;1949;48.152;11.528;2023-12-20T13:56:14;10.70;46.10
3868;DHT22;1949;48.152;11.528;2023-12-20T13:58:40;10.70;46.00
3868;DHT22;1949;48.152;11.528;2023-12-20T14:01:08;10.70;46.20
3868;DHT22;1949;48.152;11.528;2023-12-20T14:03:34;10.70;46.00
3868;DHT22;1949;48.152;11.528;2023-12-20T14:06:00;10.80;46.00
3868;DHT22;1949;48.152;11.528;2023-12-20T14:08:27;10.80;46.00
3868;DHT22;1949;48.152;11.528;2023-12-20T14:10:53;10.80;45.90
3868;DHT22;1949;48.152;11.528;2023-12-20T14:13:19;10.70;45.80
3868;DHT22;1949;48.152;11.528;2023-12-20T14:15:47;10.80;46.00
3868;DHT22;1949;48.152;11.528;2023-12-20T14:18:14;10.80;45.90
3868;DHT22;1949;48.152;11.528;2023-12-20T14:20:41;10.80;45.80
3868;DHT22;1949;48.152;11.528;2023-12-20T14:23:11;10.80;45.90
3868;DHT22;1949;48.152;11.528;2023-12-20T14:25:38;10.80;45.90
3868;DHT22;1949;48.152;11.528;2023-12-20T14:28:21;10.80;45.90
3868;DHT22;1949;48.152;11.528;2023-12-20T14:30:47;10.80;45.60
3868;DHT22;1949;48.152;11.528;2023-12-20T14:33:14;10.80;45.80
3868;DHT22;1949;48.152;11.528;2023-12-20T14:35:53;10.70;45.70
3868;DHT22;1949;48.152;11.528;2023-12-20T14:38:22;10.70;45.80
3868;DHT22;1949;48.152;11.528;2023-12-20T14:40:49;10.70;45.80
3868;DHT22;1949;48.152;11.528;2023-12-20T14:43:18;10.70;45.80
3868;DHT22;1949;48.152;11.528;2023-12-20T14:45:44;10.70;45.80
3868;DHT22;1949;48.152;11.528;2023-12-20T14:48:09;10.70;45.70
3868;DHT22;1949;48.152;11.528;2023-12-20T14:50:35;10.70;45.70
3868;DHT22;1949;48.152;11.528;2023-12-20T14:53:02;10.80;45.90
3868;DHT22;1949;48.152;11.528;2023-12-20T14:55:28;10.80;45.80
3868;DHT22;1949;48.152;11.528;2023-12-20T14:57:57;10.80;45.80
3868;DHT22;1949;48.152;11.528;2023-12-20T15:00:22;10.80;45.80
3868;DHT22;1949;48.152;11.528;2023-12-20T15:02:48;10.80;45.60
3868;DHT22;1949;48.152;11.528;2023-12-20T15:05:14;10.80;45.60
3868;DHT22;1949;48.152;11.528;2023-12-20T15:07:41;10.80;45.60
3868;DHT22;1949;48.152;11.528;2023-12-20T15:10:08;10.70;45.50
3868;DHT22;1949;48.152;11.528;2023-12-20T15:12:34;10.70;45.60
3868;DHT22;1949;48.152;11.528;2023-12-20T15:15:00;10.70;45.70
3868;DHT22;1949;48.152;11.528;2023-12-20T15:17:28;10.70;45.60
3868;DHT22;1949;48.152;11.528;2023-12-20T15:19:55;10.70;45.60
3868;DHT22;1949;48.152;11.528;2023-12-20T15:22:21;10.70;45.40
3868;DHT22;1949;48.152;11.528;2023-12-20T15:24:48;10.60;45.40
3868;DHT22;1949;48.152;11.528;2023-12-20T15:27:16;10.50;45.50
3868;DHT22;1949;48.152;11.528;2023-12-20T15:29:47;10.50;45.50
3868;DHT22;1949;48.152;11.528;2023-12-20T15:32:15;10.50;45.50
3868;DHT22;1949;48.152;11.528;2023-12-20T15:34:41;10.50;45.40
3868;DHT22;1949;48.152;11.528;2023-12-20T15:37:29;10.40;45.20
3868;DHT22;1949;48.152;11.528;2023-12-20T15:39:56;10.40;45.40
3868;DHT22;1949;48.152;11.528;2023-12-20T15:42:22;10.40;45.40
3868;DHT22;1949;48.152;11.528;2023-12-20T15:44:47;10.40;45.30
3868;DHT22;1949;48.152;11.528;2023-12-20T15:47:13;10.40;45.30
3868;DHT22;1949;48.152;11.528;2023-12-20T15:49:40;10.40;45.40
3868;DHT22;1949;48.152;11.528;2023-12-20T15:52:05;10.40;45.20
3868;DHT22;1949;48.152;11.528;2023-12-20T15:54:31;10.40;45.30
3868;DHT22;1949;48.152;11.528;2023-12-20T15:56:59;10.40;45.20